Time,TemperatureF,DewpointF,PressureIn,WindDirection,WindDirectionDegrees,WindSpeedMPH,WindSpeedGustMPH,Humidity,HourlyPrecipIn,Conditions,Clouds,dailyrainin,SoftwareType,DateUTC
2013-02-03 00:03:00,48.8,21.7,30.15,East,91,0.0,0.0,34,0.00,,---,0.00,VWS V14.00,2013-02-03 07:03:00,
2013-02-03 00:08:00,48.3,20.5,30.15,East,91,0.0,0.0,33,0.00,,---,0.00,VWS V14.00,2013-02-03 07:08:00,
2013-02-03 00:13:00,47.7,21.4,30.15,East,91,0.0,0.0,35,0.00,,---,0.00,VWS V14.00,2013-02-03 07:13:00,
2013-02-03 00:18:00,46.7,21.8,30.14,East,91,0.0,0.0,37,0.00,,---,0.00,VWS V14.00,2013-02-03 07:18:00,
2013-02-03 00:23:00,45.7,20.9,30.14,East,91,0.0,0.0,37,0.00,,---,0.00,VWS V14.00,2013-02-03 07:23:00,
2013-02-03 00:28:00,45.1,20.4,30.14,East,91,0.0,0.0,37,0.00,,---,0.00,VWS V14.00,2013-02-03 07:28:00,
2013-02-03 00:33:00,45.0,21.5,30.14,East,91,0.0,0.0,39,0.00,,---,0.00,VWS V14.00,2013-02-03 07:33:00,
2013-02-03 00:38:00,44.8,23.7,30.14,East,91,0.0,0.0,43,0.00,,---,0.00,VWS V14.00,2013-02-03 07:38:00,
2013-02-03 00:43:00,44.5,22.9,30.13,East,91,0.0,0.0,42,0.00,,---,0.00,VWS V14.00,2013-02-03 07:43:00,
2013-02-03 00:48:00,44.7,23.0,30.13,East,91,0.0,0.0,42,0.00,,---,0.00,VWS V14.00,2013-02-03 07:48:00,
2013-02-03 00:53:00,45.4,23.7,30.13,East,91,0.0,0.0,42,0.00,,---,0.00,VWS V14.00,2013-02-03 07:53:00,
2013-02-03 00:58:00,46.0,23.0,30.13,East,91,0.0,0.0,40,0.00,,---,0.00,VWS V14.00,2013-02-03 07:58:00,
2013-02-03 01:03:00,47.0,24.0,30.13,East,91,0.0,0.0,40,0.00,,---,0.00,VWS V14.00,2013-02-03 08:03:00,
2013-02-03 01:08:00,47.4,22.5,30.13,East,91,0.0,0.0,37,0.00,,---,0.00,VWS V14.00,2013-02-03 08:08:00,
2013-02-03 01:13:00,48.2,23.8,30.12,East,91,0.0,0.0,38,0.00,,---,0.00,VWS V14.00,2013-02-03 08:13:00,
2013-02-03 01:18:00,48.4,24.6,30.12,East,91,0.0,0.0,39,0.00,,---,0.00,VWS V14.00,2013-02-03 08:18:00,
2013-02-03 01:23:00,47.7,25.8,30.12,East,91,0.0,0.0,42,0.00,,---,0.00,VWS V14.00,2013-02-03 08:23:00,
2013-02-03 01:28:00,46.9,23.9,30.12,East,91,0.0,0.0,40,0.00,,---,0.00,VWS V14.00,2013-02-03 08:28:00,
2013-02-03 01:33:00,46.4,23.4,30.12,East,91,0.0,0.0,40,0.00,,---,0.00,VWS V14.00,2013-02-03 08:33:00,
2013-02-03 01:38:00,47.0,24.0,30.12,East,91,0.0,0.0,40,0.00,,---,0.00,VWS V14.00,2013-02-03 08:38:00,
2013-02-03 01:44:00,47.2,24.7,30.12,East,91,0.0,0.0,41,0.00,,---,0.00,VWS V14.00,2013-02-03 08:44:00,
2013-02-03 01:49:00,47.0,24.5,30.12,East,91,0.0,0.0,41,0.00,,---,0.00,VWS V14.00,2013-02-03 08:49:00,
2013-02-03 01:53:00,46.9,23.3,30.12,East,91,0.0,0.0,39,0.00,,---,0.00,VWS V14.00,2013-02-03 08:53:00,
2013-02-03 01:58:00,47.1,22.8,30.12,East,91,0.0,0.0,38,0.00,,---,0.00,VWS V14.00,2013-02-03 08:58:00,
2013-02-03 02:04:00,47.3,23.0,30.11,East,91,0.0,0.0,38,0.00,,---,0.00,VWS V14.00,2013-02-03 09:04:00,
2013-02-03 02:09:00,47.2,23.5,30.11,East,91,0.0,0.0,39,0.00,,---,0.00,VWS V14.00,2013-02-03 09:09:00,
2013-02-03 02:14:00,47.2,24.1,30.11,East,91,0.0,0.0,40,0.00,,---,0.00,VWS V14.00,2013-02-03 09:14:00,
2013-02-03 02:19:00,47.2,22.9,30.11,East,91,0.0,0.0,38,0.00,,---,0.00,VWS V14.00,2013-02-03 09:19:00,
2013-02-03 02:24:00,47.4,23.7,30.11,East,91,0.0,0.0,39,0.00,,---,0.00,VWS V14.00,2013-02-03 09:24:00,
2013-02-03 02:29:00,47.1,24.0,30.10,East,91,0.0,0.0,40,0.00,,---,0.00,VWS V14.00,2013-02-03 09:29:00,
2013-02-03 02:34:00,46.7,24.8,30.10,East,91,0.0,0.0,42,0.00,,---,0.00,VWS V14.00,2013-02-03 09:34:00,
2013-02-03 02:39:00,46.5,24.1,30.10,East,91,0.0,0.0,41,0.00,,---,0.00,VWS V14.00,2013-02-03 09:39:00,
2013-02-03 02:44:00,46.9,25.0,30.09,East,91,0.0,0.0,42,0.00,,---,0.00,VWS V14.00,2013-02-03 09:44:00,
2013-02-03 02:49:00,47.4,24.3,30.10,East,91,0.0,0.0,40,0.00,,---,0.00,VWS V14.00,2013-02-03 09:49:00,
2013-02-03 02:54:00,47.9,26.5,30.10,East,91,0.0,0.0,43,0.00,,---,0.00,VWS V14.00,2013-02-03 09:54:00,
2013-02-03 02:59:00,47.7,26.3,30.10,East,91,0.0,0.0,43,0.00,,---,0.00,VWS V14.00,2013-02-03 09:59:00,
2013-02-03 03:04:00,47.1,26.9,30.09,East,91,0.0,0.0,45,0.00,,---,0.00,VWS V14.00,2013-02-03 10:04:00,
2013-02-03 03:09:00,46.6,26.9,30.09,East,91,0.0,0.0,46,0.00,,---,0.00,VWS V14.00,2013-02-03 10:09:00,
2013-02-03 03:14:00,46.2,27.6,30.09,East,91,0.0,0.0,48,0.00,,---,0.00,VWS V14.00,2013-02-03 10:14:00,
2013-02-03 03:19:00,46.3,25.0,30.09,East,91,0.0,0.0,43,0.00,,---,0.00,VWS V14.00,2013-02-03 10:19:00,
2013-02-03 03:24:00,47.3,24.8,30.08,East,91,0.0,0.0,41,0.00,,---,0.00,VWS V14.00,2013-02-03 10:24:00,
2013-02-03 03:29:00,48.5,24.1,30.09,East,91,0.0,0.0,38,0.00,,---,0.00,VWS V14.00,2013-02-03 10:29:00,
2013-02-03 03:34:00,49.4,23.6,30.09,East,91,0.0,0.0,36,0.00,,---,0.00,VWS V14.00,2013-02-03 10:34:00,
2013-02-03 03:39:00,50.0,23.4,30.09,East,91,0.0,0.0,35,0.00,,---,0.00,VWS V14.00,2013-02-03 10:39:00,
2013-02-03 03:44:00,50.2,23.6,30.08,East,91,0.0,0.0,35,0.00,,---,0.00,VWS V14.00,2013-02-03 10:44:00,
2013-02-03 03:49:00,50.2,23.6,30.09,East,91,0.0,0.0,35,0.00,,---,0.00,VWS V14.00,2013-02-03 10:49:00,
2013-02-03 03:54:00,49.9,23.4,30.08,East,91,0.0,0.0,35,0.00,,---,0.00,VWS V14.00,2013-02-03 10:54:00,
2013-02-03 03:59:00,49.3,24.8,30.08,East,91,0.0,0.0,38,0.00,,---,0.00,VWS V14.00,2013-02-03 10:59:00,
2013-02-03 04:04:00,48.2,26.2,30.07,East,91,0.0,0.0,42,0.00,,---,0.00,VWS V14.00,2013-02-03 11:04:00,
2013-02-03 04:09:00,47.7,24.0,30.07,East,91,0.0,0.0,39,0.00,,---,0.00,VWS V14.00,2013-02-03 11:09:00,
2013-02-03 04:14:00,48.0,24.2,30.07,East,91,0.0,0.0,39,0.00,,---,0.00,VWS V14.00,2013-02-03 11:14:00,
2013-02-03 04:19:00,48.4,25.2,30.07,East,91,0.0,0.0,40,0.00,,---,0.00,VWS V14.00,2013-02-03 11:19:00,
2013-02-03 04:24:00,48.3,25.7,30.06,East,91,0.0,0.0,41,0.00,,---,0.00,VWS V14.00,2013-02-03 11:24:00,
2013-02-03 04:29:00,48.2,25.6,30.06,East,91,0.0,0.0,41,0.00,,---,0.00,VWS V14.00,2013-02-03 11:29:00,
2013-02-03 04:34:00,48.3,24.5,30.06,East,91,0.0,0.0,39,0.00,,---,0.00,VWS V14.00,2013-02-03 11:34:00,
2013-02-03 04:39:00,48.6,26.6,30.06,East,91,0.0,0.0,42,0.00,,---,0.00,VWS V14.00,2013-02-03 11:39:00,
2013-02-03 04:44:00,48.0,26.0,30.06,East,91,0.0,0.0,42,0.00,,---,0.00,VWS V14.00,2013-02-03 11:44:00,
2013-02-03 04:49:00,47.4,24.9,30.06,East,91,0.0,0.0,41,0.00,,---,0.00,VWS V14.00,2013-02-03 11:49:00,
2013-02-03 04:54:00,46.5,26.9,30.06,East,91,0.0,0.0,46,0.00,,---,0.00,VWS V14.00,2013-02-03 11:54:00,
2013-02-03 04:59:00,45.6,26.5,30.06,East,91,0.0,0.0,47,0.00,,---,0.00,VWS V14.00,2013-02-03 11:59:00,
2013-02-03 05:04:00,45.4,24.2,30.06,East,91,0.0,0.0,43,0.00,,---,0.00,VWS V14.00,2013-02-03 12:04:00,
2013-02-03 05:09:00,46.0,24.8,30.05,East,91,0.0,0.0,43,0.00,,---,0.00,VWS V14.00,2013-02-03 12:09:00,
2013-02-03 05:14:00,46.4,26.2,30.05,East,91,0.0,0.0,45,0.00,,---,0.00,VWS V14.00,2013-02-03 12:14:00,
2013-02-03 05:19:00,46.6,24.2,30.05,East,91,0.0,0.0,41,0.00,,---,0.00,VWS V14.00,2013-02-03 12:19:00,
2013-02-03 05:24:00,47.0,24.5,30.05,East,91,0.0,0.0,41,0.00,,---,0.00,VWS V14.00,2013-02-03 12:24:00,
2013-02-03 05:29:00,47.3,24.8,30.04,East,91,0.0,0.0,41,0.00,,---,0.00,VWS V14.00,2013-02-03 12:29:00,
2013-02-03 05:34:00,47.0,26.2,30.04,East,91,0.0,0.0,44,0.00,,---,0.00,VWS V14.00,2013-02-03 12:34:00,
2013-02-03 05:39:00,45.9,26.3,30.04,East,91,0.0,0.0,46,0.00,,---,0.00,VWS V14.00,2013-02-03 12:39:00,
2013-02-03 05:44:00,44.9,26.9,30.04,East,91,0.0,0.0,49,0.00,,---,0.00,VWS V14.00,2013-02-03 12:44:00,
2013-02-03 05:49:00,43.8,26.9,30.05,East,91,0.0,0.0,51,0.00,,---,0.00,VWS V14.00,2013-02-03 12:49:00,
2013-02-03 05:54:00,43.2,26.8,30.04,East,91,0.0,0.0,52,0.00,,---,0.00,VWS V14.00,2013-02-03 12:54:00,
2013-02-03 05:59:00,42.8,26.9,30.05,East,91,0.0,0.0,53,0.00,,---,0.00,VWS V14.00,2013-02-03 12:59:00,
2013-02-03 06:04:00,42.4,27.4,30.04,East,91,0.0,0.0,55,0.00,,---,0.00,VWS V14.00,2013-02-03 13:04:00,
2013-02-03 06:10:00,42.5,27.0,30.05,East,91,0.0,0.0,54,0.00,,---,0.00,VWS V14.00,2013-02-03 13:10:00,
2013-02-03 06:15:00,42.7,26.8,30.04,East,91,0.0,0.0,53,0.00,,---,0.00,VWS V14.00,2013-02-03 13:15:00,
2013-02-03 06:20:00,43.1,26.2,30.05,East,91,0.0,0.0,51,0.00,,---,0.00,VWS V14.00,2013-02-03 13:20:00,
2013-02-03 06:24:00,43.6,28.1,30.04,East,91,0.0,0.0,54,0.00,,---,0.00,VWS V14.00,2013-02-03 13:24:00,
2013-02-03 06:29:00,43.5,28.0,30.05,East,91,0.0,0.0,54,0.00,,---,0.00,VWS V14.00,2013-02-03 13:29:00,
2013-02-03 06:34:00,43.3,28.2,30.04,East,91,0.0,0.0,55,0.00,,---,0.00,VWS V14.00,2013-02-03 13:34:00,
2013-02-03 06:39:00,43.2,26.8,30.04,East,91,0.0,3.0,52,0.00,,---,0.00,VWS V14.00,2013-02-03 13:39:00,
2013-02-03 06:45:00,43.4,26.5,30.04,East,91,0.0,3.0,51,0.00,,---,0.00,VWS V14.00,2013-02-03 13:45:00,
2013-02-03 06:49:00,45.0,27.5,30.04,East,91,0.0,3.0,50,0.00,,---,0.00,VWS V14.00,2013-02-03 13:49:00,
2013-02-03 06:55:00,45.4,26.9,30.05,East,92,0.0,3.0,48,0.00,,---,0.00,VWS V14.00,2013-02-03 13:55:00,
2013-02-03 07:00:00,45.4,27.4,30.04,East,91,0.0,3.0,49,0.00,,---,0.00,VWS V14.00,2013-02-03 14:00:00,
2013-02-03 07:05:00,45.1,26.6,30.04,East,92,0.0,0.0,48,0.00,,---,0.00,VWS V14.00,2013-02-03 14:05:00,
2013-02-03 07:10:00,45.0,25.5,30.04,East,91,0.0,0.0,46,0.00,,---,0.00,VWS V14.00,2013-02-03 14:10:00,
2013-02-03 07:15:00,45.0,26.5,30.05,East,92,0.0,0.0,48,0.00,,---,0.00,VWS V14.00,2013-02-03 14:15:00,
2013-02-03 07:20:00,45.0,26.5,30.05,East,91,0.0,0.0,48,0.00,,---,0.00,VWS V14.00,2013-02-03 14:20:00,
2013-02-03 07:25:00,44.8,26.8,30.04,East,92,0.0,0.0,49,0.00,,---,0.00,VWS V14.00,2013-02-03 14:25:00,
2013-02-03 07:30:00,44.5,27.5,30.05,East,91,0.0,0.0,51,0.00,,---,0.00,VWS V14.00,2013-02-03 14:30:00,
2013-02-03 07:35:00,44.1,28.5,30.04,East,92,0.0,0.0,54,0.00,,---,0.00,VWS V14.00,2013-02-03 14:35:00,
2013-02-03 07:40:00,43.8,28.2,30.04,East,91,0.0,0.0,54,0.00,,---,0.00,VWS V14.00,2013-02-03 14:40:00,
2013-02-03 07:45:00,43.9,27.0,30.04,East,91,0.0,0.0,51,0.00,,---,0.00,VWS V14.00,2013-02-03 14:45:00,
2013-02-03 07:50:00,44.2,29.5,30.04,East,91,0.0,0.0,56,0.00,,---,0.00,VWS V14.00,2013-02-03 14:50:00,
2013-02-03 07:55:00,44.3,30.5,30.04,East,92,0.0,0.0,58,0.00,,---,0.00,VWS V14.00,2013-02-03 14:55:00,
2013-02-03 08:00:00,44.4,29.3,30.04,East,92,0.0,0.0,55,0.00,,---,0.00,VWS V14.00,2013-02-03 15:00:00,
2013-02-03 08:05:00,44.8,30.5,30.04,East,91,0.0,0.0,57,0.00,,---,0.00,VWS V14.00,2013-02-03 15:05:00,
2013-02-03 08:10:00,45.3,29.2,30.04,East,91,0.0,0.0,53,0.00,,---,0.00,VWS V14.00,2013-02-03 15:10:00,
2013-02-03 08:15:00,45.7,32.6,30.04,East,91,0.0,0.0,60,0.00,,---,0.00,VWS V14.00,2013-02-03 15:15:00,
2013-02-03 08:20:00,46.1,32.2,30.04,East,92,0.0,0.0,58,0.00,,---,0.00,VWS V14.00,2013-02-03 15:20:00,
2013-02-03 08:25:00,46.7,32.7,30.03,East,91,0.0,0.0,58,0.00,,---,0.00,VWS V14.00,2013-02-03 15:25:00,
2013-02-03 08:30:00,47.2,32.3,30.04,East,92,0.0,0.0,56,0.00,,---,0.00,VWS V14.00,2013-02-03 15:30:00,
2013-02-03 08:35:00,47.7,32.8,30.04,East,91,0.0,0.0,56,0.00,,---,0.00,VWS V14.00,2013-02-03 15:35:00,
2013-02-03 08:40:00,48.3,33.3,30.03,East,92,0.0,0.0,56,0.00,,---,0.00,VWS V14.00,2013-02-03 15:40:00,
2013-02-03 08:45:00,49.0,32.2,30.03,East,91,0.0,0.0,52,0.00,,---,0.00,VWS V14.00,2013-02-03 15:45:00,
2013-02-03 08:50:00,49.7,28.1,30.04,East,92,0.0,0.0,43,0.00,,---,0.00,VWS V14.00,2013-02-03 15:50:00,
2013-02-03 08:55:00,50.3,28.1,30.04,East,92,0.0,0.0,42,0.00,,---,0.00,VWS V14.00,2013-02-03 15:55:00,
2013-02-03 09:00:00,50.9,28.1,30.04,East,91,0.0,0.0,41,0.00,,---,0.00,VWS V14.00,2013-02-03 16:00:00,
2013-02-03 09:05:00,51.3,27.2,30.03,East,92,0.0,0.0,39,0.00,,---,0.00,VWS V14.00,2013-02-03 16:05:00,
2013-02-03 09:10:00,51.8,25.0,30.03,East,91,0.0,0.0,35,0.00,,---,0.00,VWS V14.00,2013-02-03 16:10:00,
2013-02-03 09:15:00,52.3,26.2,30.04,East,91,0.0,0.0,36,0.00,,---,0.00,VWS V14.00,2013-02-03 16:15:00,
2013-02-03 09:20:00,52.7,27.2,30.03,East,91,0.0,0.0,37,0.00,,---,0.00,VWS V14.00,2013-02-03 16:20:00,
2013-02-03 09:25:00,53.0,28.1,30.03,East,92,0.0,0.0,38,0.00,,---,0.00,VWS V14.00,2013-02-03 16:25:00,
2013-02-03 09:30:00,53.3,27.0,30.03,East,92,0.0,0.0,36,0.00,,---,0.00,VWS V14.00,2013-02-03 16:30:00,
2013-02-03 09:35:00,53.5,27.2,30.03,East,92,0.0,0.0,36,0.00,,---,0.00,VWS V14.00,2013-02-03 16:35:00,
2013-02-03 09:40:00,53.7,28.1,30.03,East,92,0.0,0.0,37,0.00,,---,0.00,VWS V14.00,2013-02-03 16:40:00,
2013-02-03 09:45:00,53.8,27.5,30.03,East,91,0.0,0.0,36,0.00,,---,0.00,VWS V14.00,2013-02-03 16:45:00,
2013-02-03 09:50:00,54.0,27.7,30.03,East,92,0.0,0.0,36,0.00,,---,0.00,VWS V14.00,2013-02-03 16:50:00,
2013-02-03 09:55:00,54.1,26.4,30.03,East,92,0.0,0.0,34,0.00,,---,0.00,VWS V14.00,2013-02-03 16:55:00,
2013-02-03 10:00:00,54.2,25.0,30.03,East,91,0.0,0.0,32,0.00,,---,0.00,VWS V14.00,2013-02-03 17:00:00,
2013-02-03 10:05:00,54.4,25.9,30.03,East,91,0.0,0.0,33,0.00,,---,0.00,VWS V14.00,2013-02-03 17:05:00,
2013-02-03 10:10:00,54.6,24.6,30.03,ENE,72,0.0,0.0,31,0.00,,---,0.00,VWS V14.00,2013-02-03 17:10:00,
2013-02-03 10:15:00,55.0,24.9,30.03,ENE,71,0.0,0.0,31,0.00,,---,0.00,VWS V14.00,2013-02-03 17:15:00,
2013-02-03 10:20:00,55.4,24.5,30.03,ENE,71,0.0,0.0,30,0.00,,---,0.00,VWS V14.00,2013-02-03 17:20:00,
2013-02-03 10:25:00,55.8,24.9,30.03,ENE,71,0.0,0.0,30,0.00,,---,0.00,VWS V14.00,2013-02-03 17:25:00,
2013-02-03 10:30:00,56.2,24.4,30.03,ENE,71,0.0,0.0,29,0.00,,---,0.00,VWS V14.00,2013-02-03 17:30:00,
2013-02-03 10:35:00,56.6,23.9,30.03,ENE,71,0.0,0.0,28,0.00,,---,0.00,VWS V14.00,2013-02-03 17:35:00,
2013-02-03 10:40:00,57.2,24.4,30.03,ENE,71,2.0,3.0,28,0.00,,---,0.00,VWS V14.00,2013-02-03 17:40:00,
2013-02-03 10:45:00,57.6,23.9,30.03,ENE,71,0.0,3.0,27,0.00,,---,0.00,VWS V14.00,2013-02-03 17:45:00,
2013-02-03 10:50:00,58.2,25.3,30.03,ENE,71,0.0,3.0,28,0.00,,---,0.00,VWS V14.00,2013-02-03 17:50:00,
2013-02-03 10:55:00,58.7,24.8,30.03,NE,40,3.0,4.0,27,0.00,,---,0.00,VWS V14.00,2013-02-03 17:55:00,
2013-02-03 11:00:00,58.8,25.8,30.02,NE,40,0.0,4.0,28,0.00,,---,0.00,VWS V14.00,2013-02-03 18:00:00,
2013-02-03 11:05:00,58.9,25.0,30.03,NE,36,0.0,0.0,27,0.00,,---,0.00,VWS V14.00,2013-02-03 18:05:00,
2013-02-03 11:10:00,59.1,25.2,30.02,NNE,30,0.0,4.0,27,0.00,,---,0.00,VWS V14.00,2013-02-03 18:10:00,
2013-02-03 11:15:00,59.3,24.4,30.02,NNE,30,0.0,4.0,26,0.00,,---,0.00,VWS V14.00,2013-02-03 18:15:00,
2013-02-03 11:20:00,59.6,24.7,30.02,NNE,30,0.0,4.0,26,0.00,,---,0.00,VWS V14.00,2013-02-03 18:20:00,
2013-02-03 11:25:00,60.0,24.1,30.02,North,355,3.0,4.0,25,0.00,,---,0.00,VWS V14.00,2013-02-03 18:25:00,
2013-02-03 11:30:00,60.5,24.5,30.02,North,355,0.0,4.0,25,0.00,,---,0.00,VWS V14.00,2013-02-03 18:30:00,
2013-02-03 11:35:00,61.0,25.0,30.02,SW,233,0.0,6.0,25,0.00,,---,0.00,VWS V14.00,2013-02-03 18:35:00,
2013-02-03 11:40:00,61.3,24.2,30.02,SW,232,0.0,6.0,24,0.00,,---,0.00,VWS V14.00,2013-02-03 18:40:00,
2013-02-03 11:45:00,61.6,24.5,30.01,SW,232,0.0,6.0,24,0.00,,---,0.00,VWS V14.00,2013-02-03 18:45:00,
2013-02-03 11:50:00,61.7,24.6,30.01,SW,232,0.0,6.0,24,0.00,,---,0.00,VWS V14.00,2013-02-03 18:50:00,
2013-02-03 11:55:00,61.4,24.3,30.01,SW,226,1.0,6.0,24,0.00,,---,0.00,VWS V14.00,2013-02-03 18:55:00,
2013-02-03 12:00:00,61.4,24.3,30.00,SSW,210,0.0,6.0,24,0.00,,---,0.00,VWS V14.00,2013-02-03 19:00:00,
2013-02-03 12:05:00,61.6,24.5,30.00,SSW,210,0.0,3.0,24,0.00,,---,0.00,VWS V14.00,2013-02-03 19:05:00,
2013-02-03 12:10:00,61.6,24.5,30.00,SSW,212,0.0,5.0,24,0.00,,---,0.00,VWS V14.00,2013-02-03 19:10:00,
2013-02-03 12:15:00,61.6,24.5,29.99,SSW,212,0.0,5.0,24,0.00,,---,0.00,VWS V14.00,2013-02-03 19:15:00,
2013-02-03 12:20:00,61.9,23.7,29.99,SSW,213,0.0,5.0,23,0.00,,---,0.00,VWS V14.00,2013-02-03 19:20:00,
2013-02-03 12:25:00,61.9,23.7,29.98,SSW,213,0.0,5.0,23,0.00,,---,0.00,VWS V14.00,2013-02-03 19:25:00,
2013-02-03 12:30:00,62.2,22.9,29.98,SSW,213,0.0,5.0,22,0.00,,---,0.00,VWS V14.00,2013-02-03 19:30:00,
2013-02-03 12:35:00,62.5,22.1,29.97,SSW,213,0.0,0.0,21,0.00,,---,0.00,VWS V14.00,2013-02-03 19:35:00,
2013-02-03 12:40:00,62.9,24.6,29.97,SSW,213,0.0,0.0,23,0.00,,---,0.00,VWS V14.00,2013-02-03 19:40:00,
2013-02-03 12:45:00,63.1,24.7,29.97,WNW,300,5.0,5.0,23,0.00,,---,0.00,VWS V14.00,2013-02-03 19:45:00,
2013-02-03 12:50:00,62.8,23.4,29.97,WNW,300,0.0,5.0,22,0.00,,---,0.00,VWS V14.00,2013-02-03 19:50:00,
2013-02-03 12:55:00,62.7,23.3,29.96,WNW,300,0.0,5.0,22,0.00,,---,0.00,VWS V14.00,2013-02-03 19:55:00,
2013-02-03 13:00:00,62.8,24.5,29.96,WNW,295,0.0,5.0,23,0.00,,---,0.00,VWS V14.00,2013-02-03 20:00:00,
2013-02-03 13:05:00,62.5,24.2,29.96,WNW,294,3.0,5.0,23,0.00,,---,0.00,VWS V14.00,2013-02-03 20:05:00,
2013-02-03 13:10:00,62.2,25.0,29.96,WNW,292,2.0,5.0,24,0.00,,---,0.00,VWS V14.00,2013-02-03 20:10:00,
2013-02-03 13:15:00,62.1,22.8,29.95,WNW,292,4.0,5.0,22,0.00,,---,0.00,VWS V14.00,2013-02-03 20:15:00,
2013-02-03 13:20:00,62.0,23.8,29.95,West,281,3.0,6.0,23,0.00,,---,0.00,VWS V14.00,2013-02-03 20:20:00,
2013-02-03 13:26:00,61.9,23.7,29.95,West,278,0.0,6.0,23,0.00,,---,0.00,VWS V14.00,2013-02-03 20:26:00,
2013-02-03 13:31:00,61.8,23.6,29.95,West,278,0.0,6.0,23,0.00,,---,0.00,VWS V14.00,2013-02-03 20:31:00,
2013-02-03 13:36:00,61.6,23.5,29.95,West,259,0.0,5.0,23,0.00,,---,0.00,VWS V14.00,2013-02-03 20:36:00,
2013-02-03 13:41:00,61.4,23.3,29.94,WSW,255,4.0,6.0,23,0.00,,---,0.00,VWS V14.00,2013-02-03 20:41:00,
2013-02-03 13:46:00,61.2,24.1,29.94,WSW,250,4.0,6.0,24,0.00,,---,0.00,VWS V14.00,2013-02-03 20:46:00,
2013-02-03 13:51:00,60.8,24.8,29.94,WSW,240,3.0,10.0,25,0.00,,---,0.00,VWS V14.00,2013-02-03 20:51:00,
2013-02-03 13:56:00,60.4,25.4,29.94,West,272,5.0,10.0,26,0.00,,---,0.00,VWS V14.00,2013-02-03 20:56:00,
2013-02-03 14:01:00,60.2,25.2,29.94,West,268,0.0,10.0,26,0.00,,---,0.00,VWS V14.00,2013-02-03 21:01:00,
2013-02-03 14:06:00,60.0,25.0,29.94,West,266,5.0,6.0,26,0.00,,---,0.00,VWS V14.00,2013-02-03 21:06:00,
2013-02-03 14:11:00,59.8,25.8,29.94,West,265,2.0,6.0,27,0.00,,---,0.00,VWS V14.00,2013-02-03 21:11:00,
2013-02-03 14:16:00,59.5,24.6,29.94,West,264,3.0,7.0,26,0.00,,---,0.00,VWS V14.00,2013-02-03 21:16:00,
2013-02-03 14:21:00,59.2,24.4,29.95,West,269,3.0,7.0,26,0.00,,---,0.00,VWS V14.00,2013-02-03 21:21:00,
2013-02-03 14:26:00,58.9,25.0,29.94,West,269,0.0,7.0,27,0.00,,---,0.00,VWS V14.00,2013-02-03 21:26:00,
2013-02-03 14:31:00,58.8,24.9,29.95,West,269,0.0,7.0,27,0.00,,---,0.00,VWS V14.00,2013-02-03 21:31:00,
2013-02-03 14:36:00,58.7,24.8,29.95,West,269,2.0,4.0,27,0.00,,---,0.00,VWS V14.00,2013-02-03 21:36:00,
2013-02-03 14:41:00,58.7,24.8,29.95,West,269,0.0,4.0,27,0.00,,---,0.00,VWS V14.00,2013-02-03 21:41:00,
2013-02-03 14:46:00,58.6,24.8,29.95,SSW,210,5.0,6.0,27,0.00,,---,0.00,VWS V14.00,2013-02-03 21:46:00,
2013-02-03 14:51:00,58.7,26.5,29.95,SE,134,6.0,11.0,29,0.00,,---,0.00,VWS V14.00,2013-02-03 21:51:00,
2013-02-03 14:56:00,58.8,25.8,29.95,SSW,200,3.0,11.0,28,0.00,,---,0.00,VWS V14.00,2013-02-03 21:56:00,
2013-02-03 15:01:00,58.8,24.9,29.95,West,271,4.0,11.0,27,0.00,,---,0.00,VWS V14.00,2013-02-03 22:01:00,
2013-02-03 15:06:00,58.8,24.9,29.95,SSW,209,4.0,8.0,27,0.00,,---,0.00,VWS V14.00,2013-02-03 22:06:00,
2013-02-03 15:11:00,58.7,24.8,29.95,SW,227,2.0,8.0,27,0.00,,---,0.00,VWS V14.00,2013-02-03 22:11:00,
2013-02-03 15:16:00,58.8,24.9,29.94,SW,227,0.0,8.0,27,0.00,,---,0.00,VWS V14.00,2013-02-03 22:16:00,
2013-02-03 15:21:00,58.8,24.0,29.94,SW,227,1.0,8.0,26,0.00,,---,0.00,VWS V14.00,2013-02-03 22:21:00,
2013-02-03 15:26:00,58.9,24.1,29.94,South,184,2.0,8.0,26,0.00,,---,0.00,VWS V14.00,2013-02-03 22:26:00,
2013-02-03 15:31:00,58.8,24.9,29.94,SW,215,0.0,8.0,27,0.00,,---,0.00,VWS V14.00,2013-02-03 22:31:00,
2013-02-03 15:36:00,58.8,24.9,29.94,SW,216,3.0,6.0,27,0.00,,---,0.00,VWS V14.00,2013-02-03 22:36:00,
2013-02-03 15:41:00,58.8,27.5,29.94,South,188,0.0,6.0,30,0.00,,---,0.00,VWS V14.00,2013-02-03 22:41:00,
2013-02-03 15:46:00,58.8,31.9,29.94,South,171,6.0,7.0,36,0.00,,---,0.00,VWS V14.00,2013-02-03 22:46:00,
2013-02-03 15:51:00,58.7,32.5,29.94,SSE,147,4.0,7.0,37,0.00,,---,0.00,VWS V14.00,2013-02-03 22:51:00,
2013-02-03 15:56:00,58.5,33.0,29.94,SSE,162,4.0,13.0,38,0.00,,---,0.00,VWS V14.00,2013-02-03 22:56:00,
2013-02-03 16:01:00,58.2,33.4,29.94,South,172,10.0,16.0,39,0.00,,---,0.00,VWS V14.00,2013-02-03 23:01:00,
2013-02-03 16:06:00,57.9,34.4,29.94,South,177,5.0,16.0,41,0.00,,---,0.00,VWS V14.00,2013-02-03 23:06:00,
2013-02-03 16:11:00,57.4,35.1,29.94,SSE,155,10.0,16.0,43,0.00,,---,0.00,VWS V14.00,2013-02-03 23:11:00,
2013-02-03 16:16:00,57.1,34.8,29.94,SE,136,8.0,16.0,43,0.00,,---,0.00,VWS V14.00,2013-02-03 23:16:00,
2013-02-03 16:21:00,57.0,34.8,29.94,SSE,157,7.0,16.0,43,0.00,,---,0.00,VWS V14.00,2013-02-03 23:21:00,
2013-02-03 16:26:00,56.9,35.8,29.94,South,171,0.0,16.0,45,0.00,,---,0.00,VWS V14.00,2013-02-03 23:26:00,
2013-02-03 16:31:00,56.7,36.2,29.94,South,187,4.0,16.0,46,0.00,,---,0.00,VWS V14.00,2013-02-03 23:31:00,
2013-02-03 16:36:00,56.5,36.5,29.94,SSE,148,4.0,7.0,47,0.00,,---,0.00,VWS V14.00,2013-02-03 23:36:00,
2013-02-03 16:41:00,56.3,36.9,29.94,SE,140,0.0,7.0,48,0.00,,---,0.00,VWS V14.00,2013-02-03 23:41:00,
2013-02-03 16:46:00,56.1,37.2,29.94,SE,143,0.0,7.0,49,0.00,,---,0.00,VWS V14.00,2013-02-03 23:46:00,
2013-02-03 16:51:00,55.9,37.5,29.94,SE,146,0.0,7.0,50,0.00,,---,0.00,VWS V14.00,2013-02-03 23:51:00,
2013-02-03 16:56:00,55.8,37.5,29.94,SSE,148,0.0,7.0,50,0.00,,---,0.00,VWS V14.00,2013-02-03 23:56:00,
2013-02-03 17:01:00,55.7,37.4,29.94,SSE,157,1.0,7.0,50,0.00,,---,0.00,VWS V14.00,2013-02-04 00:01:00,
2013-02-03 17:06:00,55.6,37.3,29.94,SSE,150,0.0,8.0,50,0.00,,---,0.00,VWS V14.00,2013-02-04 00:06:00,
2013-02-03 17:11:00,55.7,37.9,29.94,SE,139,0.0,8.0,51,0.00,,---,0.00,VWS V14.00,2013-02-04 00:11:00,
2013-02-03 17:16:00,55.8,38.0,29.94,SE,144,0.0,8.0,51,0.00,,---,0.00,VWS V14.00,2013-02-04 00:16:00,
2013-02-03 17:21:00,55.8,38.5,29.94,SE,144,0.0,8.0,52,0.00,,---,0.00,VWS V14.00,2013-02-04 00:21:00,
2013-02-03 17:26:00,55.7,38.4,29.94,SE,134,0.0,8.0,52,0.00,,---,0.00,VWS V14.00,2013-02-04 00:26:00,
2013-02-03 17:31:00,55.4,38.1,29.94,SE,126,0.0,8.0,52,0.00,,---,0.00,VWS V14.00,2013-02-04 00:31:00,
2013-02-03 17:36:00,55.1,37.8,29.94,SE,126,0.0,0.0,52,0.00,,---,0.00,VWS V14.00,2013-02-04 00:36:00,
2013-02-03 17:41:00,54.8,38.0,29.94,SE,126,0.0,0.0,53,0.00,,---,0.00,VWS V14.00,2013-02-04 00:41:00,
2013-02-03 17:46:00,54.5,37.7,29.94,SE,126,0.0,0.0,53,0.00,,---,0.00,VWS V14.00,2013-02-04 00:46:00,
2013-02-03 17:51:00,54.0,37.8,29.93,SE,126,0.0,0.0,54,0.00,,---,0.00,VWS V14.00,2013-02-04 00:51:00,
2013-02-03 17:56:00,53.4,37.2,29.94,SE,126,0.0,0.0,54,0.00,,---,0.00,VWS V14.00,2013-02-04 00:56:00,
2013-02-03 18:01:00,52.7,37.5,29.94,SE,126,0.0,0.0,56,0.00,,---,0.00,VWS V14.00,2013-02-04 01:01:00,
2013-02-03 18:06:00,52.2,37.4,29.94,SE,126,0.0,0.0,57,0.00,,---,0.00,VWS V14.00,2013-02-04 01:06:00,
2013-02-03 18:11:00,51.7,37.4,29.94,SE,126,0.0,0.0,58,0.00,,---,0.00,VWS V14.00,2013-02-04 01:11:00,
2013-02-03 18:16:00,51.4,36.7,29.94,SE,126,0.0,0.0,57,0.00,,---,0.00,VWS V14.00,2013-02-04 01:16:00,
2013-02-03 18:21:00,50.7,36.0,29.94,SE,126,0.0,0.0,57,0.00,,---,0.00,VWS V14.00,2013-02-04 01:21:00,
2013-02-03 18:26:00,49.9,36.2,29.94,SE,126,0.0,0.0,59,0.00,,---,0.00,VWS V14.00,2013-02-04 01:26:00,
2013-02-03 18:31:00,49.2,35.9,29.95,SE,126,0.0,0.0,60,0.00,,---,0.00,VWS V14.00,2013-02-04 01:31:00,
2013-02-03 18:36:00,48.8,36.0,29.95,SE,126,0.0,0.0,61,0.00,,---,0.00,VWS V14.00,2013-02-04 01:36:00,
2013-02-03 18:41:00,48.2,35.4,29.95,SE,126,0.0,0.0,61,0.00,,---,0.00,VWS V14.00,2013-02-04 01:41:00,
2013-02-03 18:46:00,47.8,35.8,29.95,SE,126,0.0,0.0,63,0.00,,---,0.00,VWS V14.00,2013-02-04 01:46:00,
2013-02-03 18:51:00,47.9,35.5,29.95,SE,126,0.0,0.0,62,0.00,,---,0.00,VWS V14.00,2013-02-04 01:51:00,
2013-02-03 18:56:00,47.9,35.5,29.95,SE,126,0.0,0.0,62,0.00,,---,0.00,VWS V14.00,2013-02-04 01:56:00,
2013-02-03 19:01:00,48.2,35.4,29.95,SE,126,0.0,0.0,61,0.00,,---,0.00,VWS V14.00,2013-02-04 02:01:00,
2013-02-03 19:06:00,48.4,35.2,29.95,SE,126,0.0,0.0,60,0.00,,---,0.00,VWS V14.00,2013-02-04 02:06:00,
2013-02-03 19:11:00,48.3,35.1,29.95,SE,126,0.0,0.0,60,0.00,,---,0.00,VWS V14.00,2013-02-04 02:11:00,
2013-02-03 19:16:00,48.3,35.1,29.95,SE,126,0.0,0.0,60,0.00,,---,0.00,VWS V14.00,2013-02-04 02:16:00,
2013-02-03 19:21:00,48.4,35.2,29.95,SE,126,0.0,0.0,60,0.00,,---,0.00,VWS V14.00,2013-02-04 02:21:00,
2013-02-03 19:26:00,48.3,35.1,29.95,SE,126,0.0,0.0,60,0.00,,---,0.00,VWS V14.00,2013-02-04 02:26:00,
2013-02-03 19:31:00,48.0,34.8,29.95,SE,126,0.0,0.0,60,0.00,,---,0.00,VWS V14.00,2013-02-04 02:31:00,
2013-02-03 19:37:00,48.0,34.8,29.95,SE,126,0.0,0.0,60,0.00,,---,0.00,VWS V14.00,2013-02-04 02:37:00,
2013-02-03 19:42:00,48.3,35.1,29.95,SE,126,0.0,0.0,60,0.00,,---,0.00,VWS V14.00,2013-02-04 02:42:00,
2013-02-03 19:47:00,48.6,34.9,29.96,SE,126,0.0,0.0,59,0.00,,---,0.00,VWS V14.00,2013-02-04 02:47:00,
2013-02-03 19:52:00,49.0,35.3,29.96,SE,126,0.0,0.0,59,0.00,,---,0.00,VWS V14.00,2013-02-04 02:52:00,
2013-02-03 19:57:00,49.4,35.3,29.96,SE,126,0.0,0.0,58,0.00,,---,0.00,VWS V14.00,2013-02-04 02:57:00,
2013-02-03 20:02:00,49.7,35.1,29.96,SE,126,0.0,0.0,57,0.00,,---,0.00,VWS V14.00,2013-02-04 03:02:00,
2013-02-03 20:07:00,50.0,35.4,29.96,SE,126,0.0,0.0,57,0.00,,---,0.00,VWS V14.00,2013-02-04 03:07:00,
2013-02-03 20:12:00,50.2,35.1,29.96,SE,126,0.0,0.0,56,0.00,,---,0.00,VWS V14.00,2013-02-04 03:12:00,
2013-02-03 20:17:00,50.3,35.2,29.96,SE,126,0.0,0.0,56,0.00,,---,0.00,VWS V14.00,2013-02-04 03:17:00,
2013-02-03 20:22:00,49.8,34.8,29.97,SE,126,0.0,0.0,56,0.00,,---,0.00,VWS V14.00,2013-02-04 03:22:00,
2013-02-03 20:27:00,49.0,34.9,29.97,SE,126,0.0,0.0,58,0.00,,---,0.00,VWS V14.00,2013-02-04 03:27:00,
2013-02-03 20:32:00,48.1,34.5,29.97,SE,126,0.0,0.0,59,0.00,,---,0.00,VWS V14.00,2013-02-04 03:32:00,
2013-02-03 20:37:00,47.6,34.4,29.97,SE,126,0.0,0.0,60,0.00,,---,0.00,VWS V14.00,2013-02-04 03:37:00,
2013-02-03 20:42:00,46.8,34.5,29.97,SE,126,0.0,0.0,62,0.00,,---,0.00,VWS V14.00,2013-02-04 03:42:00,
2013-02-03 20:47:00,46.5,34.6,29.97,SE,126,0.0,0.0,63,0.00,,---,0.00,VWS V14.00,2013-02-04 03:47:00,
2013-02-03 20:52:00,45.8,34.3,29.96,SE,126,0.0,0.0,64,0.00,,---,0.00,VWS V14.00,2013-02-04 03:52:00,
2013-02-03 20:57:00,45.1,34.4,29.97,SE,126,0.0,0.0,66,0.00,,---,0.00,VWS V14.00,2013-02-04 03:57:00,
2013-02-03 21:02:00,44.6,34.3,29.97,SE,126,0.0,0.0,67,0.00,,---,0.00,VWS V14.00,2013-02-04 04:02:00,
2013-02-03 21:07:00,44.0,34.1,29.97,SE,126,0.0,0.0,68,0.00,,---,0.00,VWS V14.00,2013-02-04 04:07:00,
2013-02-03 21:12:00,43.7,34.2,29.97,SE,126,0.0,0.0,69,0.00,,---,0.00,VWS V14.00,2013-02-04 04:12:00,
2013-02-03 21:17:00,43.8,34.7,29.97,SE,126,0.0,0.0,70,0.00,,---,0.00,VWS V14.00,2013-02-04 04:17:00,
2013-02-03 21:22:00,43.8,34.7,29.97,SE,126,0.0,0.0,70,0.00,,---,0.00,VWS V14.00,2013-02-04 04:22:00,
2013-02-03 21:27:00,44.2,34.7,29.98,SE,126,0.0,0.0,69,0.00,,---,0.00,VWS V14.00,2013-02-04 04:27:00,
2013-02-03 21:32:00,44.9,35.4,29.98,SE,126,0.0,0.0,69,0.00,,---,0.00,VWS V14.00,2013-02-04 04:32:00,
2013-02-03 21:37:00,46.3,36.0,29.98,WSW,240,0.0,6.0,67,0.00,,---,0.00,VWS V14.00,2013-02-04 04:37:00,
2013-02-03 21:42:00,48.4,36.8,29.98,SW,232,0.0,6.0,64,0.00,,---,0.00,VWS V14.00,2013-02-04 04:42:00,
2013-02-03 21:47:00,50.2,36.4,29.98,SW,229,4.0,6.0,59,0.00,,---,0.00,VWS V14.00,2013-02-04 04:47:00,
2013-02-03 21:52:00,51.3,36.6,29.98,SW,234,0.0,6.0,57,0.00,,---,0.00,VWS V14.00,2013-02-04 04:52:00,
2013-02-03 21:57:00,51.5,36.3,29.98,WSW,244,0.0,6.0,56,0.00,,---,0.00,VWS V14.00,2013-02-04 04:57:00,
2013-02-03 22:00:00,51.5,36.3,29.99,WSW,244,0.0,6.0,56,0.00,,---,0.00,VWS V14.00,2013-02-04 05:00:00,
2013-02-03 22:01:00,51.3,36.6,29.98,WSW,244,0.0,6.0,57,0.00,,---,0.00,VWS V14.00,2013-02-04 05:01:00,
2013-02-03 22:03:00,51.2,36.5,29.98,WSW,244,0.0,0.0,57,0.00,,---,0.00,VWS V14.00,2013-02-04 05:03:00,
2013-02-03 22:08:00,50.3,36.5,29.98,WSW,244,0.0,0.0,59,0.00,,---,0.00,VWS V14.00,2013-02-04 05:08:00,
2013-02-03 22:13:00,49.6,36.3,29.98,WSW,244,0.0,0.0,60,0.00,,---,0.00,VWS V14.00,2013-02-04 05:13:00,
2013-02-03 22:18:00,49.0,35.7,29.98,WSW,244,0.0,0.0,60,0.00,,---,0.00,VWS V14.00,2013-02-04 05:18:00,
2013-02-03 22:23:00,48.8,36.0,29.98,WSW,244,0.0,0.0,61,0.00,,---,0.00,VWS V14.00,2013-02-04 05:23:00,
2013-02-03 22:28:00,48.8,36.0,29.98,WSW,244,0.0,0.0,61,0.00,,---,0.00,VWS V14.00,2013-02-04 05:28:00,
2013-02-03 22:33:00,48.8,35.5,29.98,WSW,244,0.0,0.0,60,0.00,,---,0.00,VWS V14.00,2013-02-04 05:33:00,
2013-02-03 22:38:00,48.8,35.5,29.98,WSW,244,0.0,0.0,60,0.00,,---,0.00,VWS V14.00,2013-02-04 05:38:00,
2013-02-03 22:43:00,48.8,35.5,29.98,WSW,244,0.0,0.0,60,0.00,,---,0.00,VWS V14.00,2013-02-04 05:43:00,
2013-02-03 22:48:00,48.6,35.8,29.98,WSW,244,0.0,0.0,61,0.00,,---,0.00,VWS V14.00,2013-02-04 05:48:00,
2013-02-03 22:53:00,48.3,35.1,29.97,WSW,244,0.0,0.0,60,0.00,,---,0.00,VWS V14.00,2013-02-04 05:53:00,
2013-02-03 22:58:00,48.3,35.1,29.97,WSW,244,0.0,0.0,60,0.00,,---,0.00,VWS V14.00,2013-02-04 05:58:00,
2013-02-03 23:03:00,48.1,34.9,29.97,WSW,244,0.0,0.0,60,0.00,,---,0.00,VWS V14.00,2013-02-04 06:03:00,
2013-02-03 23:08:00,47.8,34.6,29.97,WSW,244,0.0,0.0,60,0.00,,---,0.00,VWS V14.00,2013-02-04 06:08:00,
2013-02-03 23:13:00,47.6,34.4,29.98,WSW,243,0.0,0.0,60,0.00,,---,0.00,VWS V14.00,2013-02-04 06:13:00,
2013-02-03 23:18:00,47.4,34.2,29.98,WSW,243,0.0,0.0,60,0.00,,---,0.00,VWS V14.00,2013-02-04 06:18:00,
2013-02-03 23:23:00,47.2,34.0,29.98,WSW,243,0.0,0.0,60,0.00,,---,0.00,VWS V14.00,2013-02-04 06:23:00,
2013-02-03 23:28:00,46.9,34.2,29.98,WSW,240,0.0,0.0,61,0.00,,---,0.00,VWS V14.00,2013-02-04 06:28:00,
2013-02-03 23:33:00,46.4,34.1,29.98,South,169,0.0,1.0,62,0.00,,---,0.00,VWS V14.00,2013-02-04 06:33:00,
2013-02-03 23:38:00,46.2,33.9,29.98,SSE,165,0.0,1.0,62,0.00,,---,0.00,VWS V14.00,2013-02-04 06:38:00,
2013-02-03 23:43:00,46.1,34.2,29.98,SSE,165,0.0,1.0,63,0.00,,---,0.00,VWS V14.00,2013-02-04 06:43:00,
2013-02-03 23:48:00,46.0,33.7,29.98,SSE,165,0.0,1.0,62,0.00,,---,0.00,VWS V14.00,2013-02-04 06:48:00,
2013-02-03 23:53:00,45.9,34.0,29.98,SSE,165,0.0,1.0,63,0.00,,---,0.00,VWS V14.00,2013-02-04 06:53:00,
2013-02-03 23:58:00,45.9,33.6,29.98,SSE,165,0.0,1.0,62,0.00,,---,0.00,VWS V14.00,2013-02-04 06:58:00,